Weather observations for the past three days for
Stephens County Airport
Metric (Imperial)
Date Time (cdt) Wind (kph) Vis. (km) Weather Sky Cond. Temperature (ºC) Relative Humidity Wind Chill (°C) Heat Index (°C) Pressure Precipitation (cm)
Air Dwpt 6 hour altimeter (cm) sea level (mb) 1 hr 3 hr 6 hr
Max. Min.
07 15:55 SE 6 8.05 Fair CLR 23.2 8.1 38% 76.25 0.0
07 15:35 NE 9 8.05 Fair CLR 23.8 8.2 37% 76.25 0.0
07 15:15 Calm 8.05 Fair CLR 23.2 8.3 39% 76.28 0.0
07 14:55 Calm 8.05 Fair CLR 23.2 8.5 39% 76.28 0.0
07 14:35 Calm 6.44 Fair CLR 23.1 8.2 39% 76.28 0.0
07 14:15 Calm 8.05 Fair CLR 22.6 8.5 41% 76.3 0.0
07 13:55 Calm 8.05 Fair CLR 22.2 8.3 41% 76.35 0.0
07 13:35 NE 11 8.05 Fair CLR 21.9 8.1 41% 76.35 0.0
07 13:15 Calm 11.27 Fair CLR 21.5 8.4 43% 76.38 0.0
07 12:55 Calm 11.27 Fair CLR 21 8.7 21.1 8.7 45% 76.4 0.0
07 12:35 Calm 8.05 Fair CLR 20 7.8 45% 76.43 0.0
07 12:15 Calm 11.27 Fair CLR 20.7 7.9 44% 76.45 0.0
07 11:55 Calm 6.44 Fair CLR 20 7.7 45% 76.48 0.0
07 11:35 Calm 8.05 Fair CLR 19.6 8.2 48% 76.5 0.0
07 11:15 Calm 6.44 Fair CLR 18.7 8.4 51% 76.53 0.0
07 10:55 Calm 8.05 Fair CLR 18.2 8 52% 76.5 0.0
07 10:35 Calm 8.05 Fair CLR 17.7 8.6 55% 76.53 0.0
07 10:15 E 9 8.05 Fair CLR 17.3 9 58% 76.53 0.0
07 09:55 Calm 6.44 Fair CLR 15.9 9.5 66% 76.53 0.0
07 09:35 Calm 8.05 Fair CLR 14.5 9.5 72% 76.56 0.0
07 09:15 Calm 8.05 Fair CLR 13.2 10.1 82% 76.56 0.0
07 08:55 Calm 8.05 Fair CLR 12 9.8 87% 76.58 0.0
07 08:35 Calm 6.44 Fair CLR 11.2 10.3 94% 76.58 0.0
07 08:15 Calm 8.05 Fair CLR 10.5 10.1 97% 76.61 0.0
07 07:55 Calm 8.05 Fair CLR 10.1 9.6 97% 76.56 0.0
07 07:35 Calm 8.05 Fair CLR 9.5 9.5 100% 76.56 0.0
07 07:15 Calm 8.05 Fair CLR 9 9 100% 76.56 0.0
07 06:55 Calm 8.05 Fair CLR 8.8 8.8 13 8.8 100% 76.56 0.0
07 06:35 Calm 11.27 Fair CLR 9.6 9.5 99% 76.56 0.0
07 06:15 Calm 11.27 Fair CLR 9.8 9.5 98% 76.56 0.0
07 05:55 Calm 11.27 Fair CLR 10 10 100% 76.53 0.0
07 05:35 Calm 8.05 Fair CLR 9.8 9.8 100% 76.53 0.0
07 05:15 Calm 11.27 Fair CLR 9.9 9.9 100% 76.53 0.0
07 04:55 Calm 11.27 Fair CLR 9.9 9.9 100% 76.5 0.0
07 04:35 Calm 8.05 Fair CLR 10.6 9.7 94% 76.5 0.0
07 04:15 Calm 11.27 Fair CLR 10.7 9.6 93% 76.45 0.0
07 03:55 Calm 8.05 Fair CLR 11 9.8 92% 76.45 0.0
07 03:35 Calm 8.05 Fair CLR 11 9.6 91% 76.43 0.0
07 03:15 Calm 8.05 Fair CLR 11 9.5 91% 76.45 0.0
07 02:55 Calm 11.27 Fair CLR 12 9.2 83% 76.43 0.0
07 02:35 Calm 11.27 Fair CLR 12.2 9.3 83% 76.4 0.0
07 02:15 Calm 8.05 Fair CLR 12.3 9.3 82% 76.4 0.0
07 01:55 Calm 8.05 Fair CLR 12.5 9.3 81% 76.4 0.0
07 01:35 Calm 11.27 Fair CLR 12.6 9.5 82% 76.38 0.0
07 01:15 Calm 11.27 Fair CLR 13 9.5 79% 76.35 0.0
07 00:55 Calm 8.05 Fair CLR 13 9.7 18.1 13 81% 76.33 0.0
07 00:35 Calm 11.27 Fair CLR 13 9.6 80% 76.3 0.0
07 00:15 Calm 8.05 Fair CLR 13.3 9.6 78% 76.3 0.0
06 23:55 Calm 11.27 Fair CLR 13.5 9.5 77% 76.3 0.0
06 23:35 Calm 11.27 Fair CLR 13.5 9.5 77% 76.3 0.0
06 23:15 Calm 11.27 Fair CLR 13.5 9.4 76% 76.28 0.0
06 22:55 Calm 11.27 Fair CLR 13.6 9.5 76% 76.3 0.0
06 22:35 Calm 11.27 Fair CLR 13.7 9.4 75% 76.28 0.0
06 22:15 Calm 11.27 Fair CLR 14 9.2 73% 76.28 0.0
06 21:55 Calm 11.27 Fair CLR 14.1 9.2 73% 76.25 0.0
06 21:35 Calm 11.27 Fair CLR 14.6 9.1 70% 76.23 0.0
06 21:15 Calm 11.27 Fair CLR 15.1 9.3 69% 76.2 0.0
06 20:55 Calm 11.27 Fair CLR 15.8 9.1 65% 76.2 0.0
06 20:35 Calm 8.05 Fair CLR 16.5 9 61% 76.17 0.0
06 20:15 Calm 11.27 Fair CLR 17.1 9 59% 76.17 0.0
06 19:55 Calm 11.27 Fair CLR 17.3 9 58% 76.15 0.0
06 19:35 Calm 6.44 Fair CLR 18 9 56% 76.15 0.0
06 19:15 Calm 8.05 Fair CLR 17.8 9 57% 76.12 0.0
06 18:55 N 7 8.05 Fair CLR 18 9 21.3 16.8 56% 76.12 0.0
06 18:35 N 15 8.05 Fair CLR 18 8.7 55% 76.1 0.0
06 18:15 N 17 G 26 8.05 Fair CLR 18.5 8.8 53% 76.1 0.0
06 17:55 N 11 8.05 Fair CLR 19.4 9.3 52% 76.07 0.0
06 17:35 N 13 8.05 Fair CLR 19.5 9.1 51% 76.05 0.0
06 17:15 N 13 8.05 Fair CLR 20.1 9.3 50% 76.05 0.0
06 16:55 N 13 8.05 Fair CLR 20.8 9.4 48% 76.05 0.0
06 16:35 Calm 8.05 Fair CLR 21 9.5 48% 76.02 0.0
06 16:15 N 11 8.05 Fair CLR 21.2 9.6 48% 76.05 0.0
06 15:55 Calm 8.05 Fair CLR 21.2 9.6 48% 76.05 0.0
06 15:35 Calm 8.05 Fair CLR 20.6 9.5 49% 76.07 0.0
06 15:15 Calm 6.44 Fair CLR 20.6 9.5 49% 76.07 0.0
06 14:55 Calm 8.05 Fair CLR 20.1 9.2 50% 76.1 0.0
06 14:35 Calm 8.05 Fair CLR 19.8 9.1 50% 76.1 0.0
06 14:15 N 9 8.05 Fair CLR 19.1 9 52% 76.1 0.0
06 13:55 NE 6 8.05 Fair CLR 18.7 8.7 52% 76.12 0.0
06 13:35 Calm 8.05 Fair CLR 17.9 8.2 53% 76.15 0.0
06 13:15 N 11 8.05 Fair CLR 17.1 7.9 55% 76.15 0.0
06 12:55 N 9 6.44 Fair CLR 17.5 8.1 17.5 11.5 54% 76.17 0.0
06 12:35 NE 13 8.05 Partly Cloudy SCT028 17 7.7 55% 76.17 0.0
06 12:15 N 13 6.44 Mostly Cloudy BKN028 15.9 7.8 59% 76.2 0.0
06 11:55 N 9 8.05 Overcast OVC028 15.5 7.6 60% 76.17 0.0
06 11:35 NE 17 8.05 Overcast OVC024 15.1 7.6 61% 76.17 0.0
06 11:15 NE 11 8.05 Overcast OVC024 14.5 7.4 63% 76.17 0.0
06 10:55 NE 17 G 26 8.05 Overcast OVC022 13.9 7.1 64% 76.15 0.0
06 10:35 N 19 8.05 Overcast OVC020 13.6 7.2 66% 76.12 0.0
06 10:15 N 19 G 26 8.05 Overcast OVC016 13 7.5 70% 76.12 0.0
06 09:55 N 17 6.44 Overcast OVC014 12 7.6 75% 76.15 0.0
06 09:35 N 13 8.05 Overcast OVC014 11.6 7.9 78% 76.23 0.0
06 09:15 N 9 6.44 Overcast OVC014 11.5 8 79% 76.28 0.0
06 08:55 N 11 8.05 Overcast OVC014 11.5 8 79% 76.2 0.0
06 08:35 N 15 8.05 Overcast OVC014 11.5 8 79% 76.15 0.0
06 08:15 N 13 8.05 Overcast OVC016 11.6 7.8 78% 76.15 0.0
06 07:55 N 9 6.44 Overcast OVC016 11.6 7.7 77% 76.15 0.0
06 07:35 N 15 8.05 Overcast OVC016 11.6 7.8 78% 76.05 0.0
06 07:15 N 15 8.05 Overcast OVC016 11.6 7.8 78% 76.02 0.0
06 06:55 NE 15 11.27 Overcast OVC018 11.7 7.6 13.3 11.7 76% 76.05 0.0
06 06:35 N 13 11.27 Overcast OVC018 11.9 7.7 76% 76.02 0.0
06 06:15 N 11 8.05 Overcast OVC016 12 7.7 75% 76.02 0.0
06 05:55 N 15 11.27 Overcast OVC016 12 7.7 75% 76.02 0.0
06 05:35 Calm 11.27 Overcast OVC016 12.3 8 75% 75.97 0.0
06 05:15 N 9 8.05 Overcast OVC016 12.5 8.6 77% 75.97 0.0
06 04:55 N 9 11.27 Overcast OVC016 12.1 8.7 80% 75.95 0.0
06 04:35 N 9 11.27 Partly Cloudy SCT016 12 8.5 79% 75.92 0.0
06 04:15 Calm 11.27 Partly Cloudy SCT028 12.2 8.5 78% 75.9 0.0
06 03:55 Calm 11.27 Overcast SCT015 OVC028 12.5 8.5 77% 75.87 0.0
06 03:35 Calm 11.27 Mostly Cloudy SCT017 BKN028 12.5 8.5 77% 75.84 0.0
06 03:15 Calm 11.27 Partly Cloudy SCT017 SCT030 12.3 8.8 79% 75.87 0.0
06 02:55 Calm 11.27 Partly Cloudy SCT017 12.3 9 80% 75.87 0.0
06 02:35 Calm 8.05 Fair CLR 12.5 9 79% 75.87 0.0
06 02:15 Calm 11.27 Fair CLR 12.5 9 79% 75.87 0.0
06 01:55 Calm 11.27 Fair CLR 12.7 9.1 79% 75.87 0.0
06 01:35 N 7 8.05 Fair CLR 13 9.5 79% 75.87 0.0
06 01:15 N 9 8.05 Fair CLR 13.2 9.5 78% 75.84 0.0
06 00:55 N 7 11.27 Fair CLR 13.4 9.7 25.1 13.4 78% 75.82 0.0
06 00:35 NE 7 11.27 Fair CLR 13.6 9.8 78% 75.79 0.0
06 00:15 Calm 8.05 Fair CLR 14 9.8 76% 75.79 0.0
05 23:55 NE 7 11.27 Fair CLR 14.2 9.9 76% 75.79 0.0
05 23:35 NE 15 8.05 Fair CLR 14.6 9.8 73% 75.82 0.0
05 23:15 NE 17 11.27 Fair CLR 15.1 10.3 73% 75.82 0.0
05 22:55 NE 13 G 28 8.05 Fair CLR 15.5 10.2 71% 75.79 0.0
05 22:35 NE 17 G 30 11.27 Fair CLR 16.3 10.5 69% 75.79 0.0
05 22:15 NE 15 8.05 Fair CLR 17.7 10.9 65% 75.77 0.0
05 21:55 N 17 11.27 Fair CLR 18.6 11 61% 75.72 0.0
05 21:35 NE 11 11.27 Fair CLR 19.3 10.9 58% 75.69 0.0
05 21:15 N 13 11.27 Fair CLR 20 10.8 56% 75.67 0.0
05 20:55 N 11 8.05 Fair CLR 20.6 11 54% 75.62 0.0
05 20:35 N 13 11.27 Fair CLR 21.3 11.1 52% 75.59 0.0
05 20:15 NE 15 4.83 Fair CLR 22 11 50% 75.57 0.0
05 19:55 N 17 8.05 Fair CLR 22.6 11.2 49% 75.51 0.0
05 19:35 NE 17 G 26 6.44 Fair CLR 23.6 11.7 47% 75.51 0.0
05 19:15 NE 17 8.05 Fair CLR 24.5 12 46% 26 75.49 0.0
05 18:55 NE 13 6.44 Fair CLR 25.1 12.2 32.7 25.1 45% 26 75.44 0.0
05 18:35 NE 19 G 26 8.05 Fair CLR 25.6 12.5 44% 26 75.44 0.0
05 18:15 NE 17 8.05 Fair CLR 26.8 13.1 43% 27 75.46 0.0
05 17:55 NE 17 G 26 8.05 Fair CLR 27.5 13.1 41% 27 75.44 0.0
05 17:35 NE 15 11.27 Fair CLR 28.2 13.9 42% 28 75.41 0.0
05 17:15 N 15 G 28 8.05 Fair CLR 29.5 14.1 39% 29 75.39 0.0
05 16:55 Calm 8.05 Fair CLR 30.6 14.7 38% 30 75.41 0.0
05 16:35 Calm 11.27 Fair CLR 32.6 13.6 32% 32 75.39 0.0
05 16:15 Calm 8.05 Fair CLR 32.5 12.4 29% 31 75.39 0.0
05 15:55 NE 9 8.05 Fair CLR 31.7 11.4 29% 30 75.36 0.0
05 15:35 N 11 6.44 Fair CLR 31.7 10.6 27% 30 75.41 0.0
05 15:15 N 13 8.05 Fair CLR 31.5 10.1 27% 30 75.41 0.0
05 14:55 N 13 8.05 Fair CLR 31.5 9.7 26% 30 75.44 0.0
05 14:35 N 17 8.05 Fair CLR 32.2 10.8 27% 31 75.44 0.0
05 14:15 SW 11 8.05 Fair CLR 32.3 13.4 32% 31 75.44 0.0
05 13:55 W 9 8.05 Fair CLR 32.2 13.7 32% 31 75.44 0.0
05 13:35 NW 13 8.05 Fair CLR 32.2 14.4 34% 32 75.46 0.0
05 13:15 W 15 8.05 Fair CLR 31.8 15.2 37% 31 75.46 0.0
05 12:55 W 19 8.05 Fair CLR 31.1 15.3 31.1 21.6 38% 31 75.46 0.0
05 12:35 W 19 G 28 8.05 Fair CLR 30.3 15.2 40% 30 75.46 0.0
05 12:15 W 22 8.05 Fair CLR 30.1 16 43% 30 75.46 0.0
05 11:55 SW 20 G 28 11.27 Fair CLR 29.6 17.1 47% 30 75.46 0.0
05 11:35 SW 19 8.05 Fair CLR 28.2 16.7 50% 29 75.46 0.0
05 11:15 SW 20 8.05 Fair CLR 28 17 51% 29 75.44 0.0
05 10:55 SW 22 G 33 6.44 Fair CLR 28 16.9 51% 29 75.44 0.0
05 10:35 SW 20 G 28 8.05 Fair CLR 28.1 17.6 53% 29 75.44 0.0
05 10:15 SW 20 G 33 8.05 Fair CLR 27.2 17.7 56% 28 75.39 0.0
05 09:55 SW 26 G 35 11.27 Fair CLR 26.4 17.7 59% 27 75.39 0.0
05 09:35 SW 19 G 28 8.05 Fair CLR 25.6 18 63% 27 75.41 0.0
05 09:15 SW 20 8.05 Fair CLR 24.8 17.8 65% 26 75.41 0.0
05 08:55 SW 22 8.05 Fair CLR 23.9 17.7 68% 25 75.39 0.0
05 08:35 SW 20 G 26 8.05 Fair CLR 23.5 17.5 69% 75.39 0.0
05 08:15 SW 17 8.05 Fair CLR 22.6 17.5 73% 75.39 0.0
05 07:55 SW 13 G 30 8.05 Fair CLR 22.4 17.3 73% 75.36 0.0
05 07:35 SW 15 8.05 Fair CLR 22 17.2 74% 75.31 0.0
05 07:15 SW 19 G 26 8.05 Fair CLR 21.6 17 75% 75.31 0.0
05 06:55 SW 20 G 33 8.05 Fair CLR 21.8 17 24 21.8 74% 75.31 0.0
05 06:35 SW 20 G 33 11.27 Fair CLR 22 17 73% 75.29 0.0
05 06:15 SW 20 G 35 11.27 Fair CLR 22.1 17 73% 75.29 0.0
05 05:55 SW 20 G 33 11.27 Fair CLR 22.3 17 72% 75.29 0.0
05 05:35 SW 26 G 35 11.27 Fair CLR 22.5 17 71% 75.29 0.0
05 05:15 SW 28 G 35 8.05 Fair CLR 22.6 17 71% 75.29 0.0
05 04:55 SW 28 G 37 11.27 Fair CLR 22.6 17 71% 75.29 0.0
05 04:35 SW 28 8.05 Fair CLR 22.8 17 70% 75.29 0.0
05 04:15 SW 30 G 39 11.27 Fair CLR 23 17 69% 75.29 0.0
05 03:55 SW 24 G 33 11.27 Fair CLR 23 17.1 70% 75.31 0.0
05 03:35 SW 19 G 30 11.27 Fair CLR 22.7 17.1 71% 75.34 0.0
05 03:15 SW 19 11.27 Fair CLR 22.6 17.1 71% 75.34 0.0
05 02:55 SW 19 8.05 Fair CLR 22.7 17.1 71% 75.34 0.0
05 02:35 SW 15 11.27 Fair CLR 23 17.1 70% 75.36 0.0
05 02:15 SW 22 G 31 11.27 Fair CLR 23.1 17.2 70% 75.39 0.0
05 01:55 SW 20 G 28 11.27 Fair CLR 23.3 17.2 69% 75.39 0.0
05 01:35 S 22 G 35 11.27 Fair CLR 23.5 17.1 67% 75.41 0.0
05 01:15 S 20 G 31 8.05 Fair CLR 23.6 17 67% 75.41 0.0
05 00:55 S 24 G 35 11.27 Fair CLR 24 17 28.2 24 65% 25 75.41 0.0
05 00:35 S 22 11.27 Fair CLR 24 17 65% 25 75.41 0.0
05 00:15 S 24 G 33 11.27 Fair CLR 24.5 17 63% 26 75.41 0.0
04 23:55 S 26 G 37 11.27 Fair CLR 24.8 17 62% 26 75.41 0.0
04 23:35 S 28 G 37 11.27 Fair CLR 25.1 17 61% 26 75.41 0.0
04 23:15 S 22 G 41 11.27 Fair CLR 25.4 17 60% 26 75.41 0.0
04 22:55 S 24 G 35 11.27 Fair CLR 25.6 17.1 59% 27 75.39 0.0
04 22:35 S 22 G 33 16.09 Fair CLR 25.6 17.2 60% 27 75.39 0.0
04 22:15 S 22 G 33 11.27 Fair CLR 25.8 17.2 59% 27 75.39 0.0
04 21:55 S 22 G 37 16.09 Fair CLR 26.2 17.2 58% 27 75.36 0.0
04 21:35 S 26 G 37 16.09 Fair CLR 26.5 17.1 56% 27 75.34 0.0
04 21:15 S 22 16.09 Fair CLR 26.6 17 56% 27 75.36 0.0
04 20:55 S 17 16.09 Fair CLR 27 17 54% 28 75.34 0.0
04 20:35 S 19 16.09 Fair CLR 27 17.2 55% 28 75.34 0.0
04 20:15 S 15 11.27 Fair CLR 27.2 17.1 54% 28 75.34 0.0
04 19:55 S 13 8.05 Fair CLR 27.7 16.7 51% 28 75.34 0.0
04 19:35 S 17 G 26 8.05 Fair CLR 28 17 51% 29 75.36 0.0
04 19:15 S 13 11.27 Fair CLR 28 17 51% 29 75.36 0.0
04 18:55 S 20 G 31 8.05 Fair CLR 28.2 16.8 30.9 27.8 50% 29 75.39 0.0
04 18:35 S 30 G 35 8.05 Fair CLR 28.8 16.5 47% 29 75.41 0.0
04 18:15 S 20 G 30 8.05 Fair CLR 29 16.8 48% 29 75.39 0.0
04 17:55 S 22 G 30 6.44 Fair CLR 28.6 16.8 49% 29 75.41 0.0
04 17:35 SW 24 G 33 8.05 Fair CLR 29 16.1 46% 29 75.46 0.0
04 17:15 S 22 G 33 8.05 Fair CLR 29.6 16.3 45% 30 75.46 0.0
04 16:55 S 24 G 31 8.05 Fair CLR 29.6 16.2 44% 30 75.46 0.0
04 16:35 S 24 G 37 8.05 Fair CLR 29.8 16 43% 30 75.46 0.0
04 16:15 S 22 G 39 8.05 Fair CLR 30.3 16 42% 30 75.49 0.0
Date Time (cdt) Wind (kph) Vis. (km) Weather Sky Cond. Air Dwpt Max. Min. Relative Humidity Wind Chill (°C) Heat Index (°C) altimeter (cm) sea level (mb) 1 hr 3 hr 6 hr
6 hour
Temperature (ºC) Pressure Precipitation (cm)